createdAt,value
2023-03-13T00:02:53.002Z,64.10
2023-03-13T00:05:22.931Z,64.90
2023-03-13T00:08:09.194Z,65.30
2023-03-13T00:10:39.744Z,64.20
2023-03-13T00:13:09.742Z,65.00
2023-03-13T00:15:38.657Z,65.60
2023-03-13T00:18:27.355Z,66.40
2023-03-13T00:21:00.568Z,68.00
2023-03-13T00:23:47.709Z,67.00
2023-03-13T00:29:04.975Z,67.70
2023-03-13T00:31:34.618Z,67.70
2023-03-13T00:34:06.177Z,67.50
2023-03-13T00:37:11.080Z,67.50
2023-03-13T00:39:40.088Z,67.20
2023-03-13T00:45:13.847Z,68.30
2023-03-13T00:47:42.835Z,68.60
2023-03-13T00:50:13.678Z,69.40
2023-03-13T00:52:42.661Z,70.60
2023-03-13T00:55:31.346Z,70.80
2023-03-13T00:58:00.457Z,72.20
2023-03-13T01:00:29.425Z,72.70
2023-03-13T01:02:59.430Z,72.90
2023-03-13T01:05:29.912Z,73.70
2023-03-13T01:08:20.122Z,74.30
2023-03-13T01:10:49.186Z,73.60
2023-03-13T01:13:18.233Z,74.90
2023-03-13T01:15:48.254Z,75.90
2023-03-13T01:18:17.199Z,74.90
2023-03-13T01:20:47.662Z,75.10
2023-03-13T01:23:35.415Z,75.80
2023-03-13T01:26:07.636Z,76.50
2023-03-13T01:28:37.683Z,77.20
2023-03-13T01:31:13.989Z,77.70
2023-03-13T01:33:43.532Z,79.10
2023-03-13T01:36:14.297Z,79.80
2023-03-13T01:41:31.591Z,81.80
2023-03-13T01:44:00.900Z,83.30
2023-03-13T01:46:48.196Z,84.70
2023-03-13T01:49:55.371Z,84.70
2023-03-13T01:52:45.156Z,86.00
2023-03-13T01:55:20.714Z,87.50
2023-03-13T01:57:54.459Z,88.30
2023-03-13T02:00:28.378Z,88.20
2023-03-13T02:03:00.443Z,89.20
2023-03-13T02:05:32.873Z,90.40
2023-03-13T02:10:55.850Z,91.40
2023-03-13T02:13:25.124Z,91.70
2023-03-13T02:15:54.340Z,92.00
2023-03-13T02:18:23.435Z,91.90
2023-03-13T02:21:13.149Z,91.60
2023-03-13T02:23:50.237Z,91.30
2023-03-13T02:26:39.442Z,90.80
2023-03-13T02:29:08.550Z,91.20
2023-03-13T02:31:37.669Z,91.40
2023-03-13T02:34:30.311Z,91.70
2023-03-13T02:37:01.662Z,92.40
2023-03-13T02:39:34.019Z,93.20
2023-03-13T02:42:06.303Z,93.60
2023-03-13T02:44:56.675Z,93.80
2023-03-13T02:47:26.917Z,94.40
2023-03-13T02:52:47.029Z,93.60
2023-03-13T02:55:22.671Z,93.70
2023-03-13T02:58:10.806Z,93.90
2023-03-13T03:00:57.679Z,93.80
2023-03-13T03:03:26.977Z,93.70
2023-03-13T03:05:56.028Z,94.30
2023-03-13T03:08:44.257Z,94.90
2023-03-13T03:11:14.975Z,95.00
2023-03-13T03:13:48.006Z,94.90
2023-03-13T03:16:19.994Z,95.00
2023-03-13T03:18:49.318Z,94.90
2023-03-13T03:21:18.324Z,95.10
2023-03-13T03:23:47.358Z,95.70
2023-03-13T03:29:23.387Z,95.20
2023-03-13T03:31:54.763Z,95.10
2023-03-13T03:34:42.299Z,95.70
2023-03-13T03:37:11.444Z,95.50
2023-03-13T03:42:46.306Z,95.60
2023-03-13T03:45:35.397Z,95.50
2023-03-13T03:48:04.810Z,95.00
2023-03-13T03:50:34.207Z,95.50
2023-03-13T03:53:04.494Z,95.40
2023-03-13T03:55:35.148Z,95.40
2023-03-13T03:58:22.942Z,95.50
2023-03-13T04:01:07.181Z,95.90
2023-03-13T04:03:54.629Z,95.60
2023-03-13T04:06:42.333Z,96.10
2023-03-13T04:09:12.319Z,96.40
2023-03-13T04:12:00.110Z,96.40
2023-03-13T04:14:29.867Z,96.20
2023-03-13T04:17:18.869Z,95.80
2023-03-13T04:19:49.597Z,96.40
2023-03-13T04:22:18.971Z,96.30
2023-03-13T04:24:52.644Z,96.30
2023-03-13T04:27:23.781Z,96.40
2023-03-13T04:30:30.343Z,96.10
2023-03-13T04:33:32.493Z,96.50
2023-03-13T04:36:31.011Z,97.30
2023-03-13T04:39:18.531Z,98.10
2023-03-13T04:45:06.372Z,98.40
2023-03-13T04:47:42.171Z,98.80
2023-03-13T04:50:21.704Z,98.80
2023-03-13T04:53:28.922Z,98.80
2023-03-13T04:56:41.737Z,99.00
2023-03-13T04:59:31.284Z,98.70
2023-03-13T05:02:07.443Z,98.50
2023-03-13T05:04:59.797Z,98.40
2023-03-13T05:07:50.232Z,98.40
2023-03-13T05:10:56.244Z,98.80
2023-03-13T05:13:33.631Z,99.00
2023-03-13T05:16:33.865Z,99.30
2023-03-13T05:19:26.022Z,99.80
2023-03-13T05:26:09.116Z,99.90
2023-03-13T05:29:10.477Z,99.90
2023-03-13T05:31:57.922Z,99.90
2023-03-13T05:34:47.077Z,99.90
2023-03-13T05:37:38.475Z,99.90
2023-03-13T05:40:27.720Z,99.90
2023-03-13T05:43:16.763Z,99.90
2023-03-13T05:46:09.022Z,99.90
2023-03-13T05:49:16.802Z,99.90
2023-03-13T05:55:00.832Z,99.90
2023-03-13T05:58:02.442Z,99.90
2023-03-13T06:00:47.397Z,99.90
2023-03-13T06:03:42.913Z,99.90
2023-03-13T06:06:14.486Z,99.10
2023-03-13T06:09:04.678Z,98.70
2023-03-13T06:11:54.187Z,98.40
2023-03-13T06:14:23.360Z,98.90
2023-03-13T06:17:10.193Z,98.50
2023-03-13T06:19:57.666Z,98.50
2023-03-13T06:22:26.826Z,98.60
2023-03-13T06:24:55.784Z,98.90
2023-03-13T06:27:42.296Z,99.00
2023-03-13T06:30:29.894Z,99.20
2023-03-13T06:33:18.821Z,99.80
2023-03-13T06:36:06.533Z,99.90
2023-03-13T06:38:35.924Z,99.90
2023-03-13T06:41:05.365Z,99.90
2023-03-13T06:43:53.034Z,99.90
2023-03-13T06:46:24.342Z,99.90
2023-03-13T06:48:55.078Z,99.90
2023-03-13T06:51:26.486Z,99.90
2023-03-13T06:56:42.197Z,99.90
2023-03-13T06:59:11.297Z,99.90
2023-03-13T07:01:40.740Z,99.90
2023-03-13T07:04:14.722Z,99.90
2023-03-13T07:06:44.609Z,99.90
2023-03-13T07:09:14.031Z,99.90
2023-03-13T07:11:43.255Z,99.90
2023-03-13T07:14:17.058Z,99.90
2023-03-13T07:16:47.323Z,99.90
2023-03-13T07:19:35.429Z,99.90
2023-03-13T07:22:05.972Z,99.90
2023-03-13T07:24:35.347Z,99.90
2023-03-13T07:27:23.454Z,99.70
2023-03-13T07:30:11.798Z,99.80
2023-03-13T07:32:42.689Z,99.50
2023-03-13T07:35:13.990Z,99.70
2023-03-13T07:38:11.613Z,99.90
2023-03-13T07:41:13.122Z,99.70
2023-03-13T07:43:43.125Z,99.40
2023-03-13T07:46:15.530Z,98.90
2023-03-13T07:49:04.140Z,98.50
2023-03-13T07:51:43.474Z,98.30
2023-03-13T07:54:13.616Z,97.30
2023-03-13T07:56:42.806Z,96.50
2023-03-13T07:59:12.600Z,95.20
2023-03-13T08:04:28.184Z,93.40
2023-03-13T08:06:59.030Z,93.00
2023-03-13T08:09:28.097Z,92.60
2023-03-13T08:11:57.166Z,92.40
2023-03-13T08:14:26.411Z,92.40
2023-03-13T08:16:55.763Z,92.20
2023-03-13T08:19:24.793Z,91.20
2023-03-13T08:21:53.985Z,90.60
2023-03-13T08:24:25.450Z,90.00
2023-03-13T08:26:54.545Z,88.20
2023-03-13T08:29:42.103Z,87.90
2023-03-13T08:32:11.170Z,87.20
2023-03-13T08:35:17.171Z,82.40
2023-03-13T08:38:04.887Z,82.20
2023-03-13T08:40:35.348Z,82.30
2023-03-13T08:43:04.524Z,82.00
2023-03-13T08:45:33.588Z,81.50
2023-03-13T08:48:02.666Z,81.40
2023-03-13T08:50:31.687Z,81.30
2023-03-13T08:53:00.785Z,79.30
2023-03-13T08:55:29.879Z,76.70
2023-03-13T08:58:18.716Z,75.60
2023-03-13T09:00:47.773Z,73.20
2023-03-13T09:03:17.789Z,72.30
2023-03-13T09:06:05.735Z,72.70
2023-03-13T09:08:36.888Z,72.70
2023-03-13T09:11:07.554Z,72.70
2023-03-13T09:13:40.254Z,72.00
2023-03-13T09:16:11.360Z,69.70
2023-03-13T09:19:17.710Z,68.70
2023-03-13T09:21:46.917Z,67.70
2023-03-13T09:24:16.589Z,67.80
2023-03-13T09:27:00.073Z,66.20
2023-03-13T09:29:31.063Z,64.70
2023-03-13T09:32:00.162Z,64.00
2023-03-13T09:34:46.539Z,61.40
2023-03-13T09:37:15.502Z,60.70
2023-03-13T09:39:44.482Z,57.40
2023-03-13T09:42:18.302Z,60.00
2023-03-13T09:44:56.595Z,54.60
2023-03-13T09:47:31.771Z,55.50
2023-03-13T09:50:06.574Z,57.90
2023-03-13T09:52:41.226Z,56.20
2023-03-13T09:55:20.965Z,56.00
2023-03-13T09:57:56.038Z,55.60
2023-03-13T10:00:48.322Z,55.80
2023-03-13T10:03:22.340Z,54.50
2023-03-13T10:05:55.819Z,57.00
2023-03-13T10:08:27.002Z,56.40
2023-03-13T10:13:50.466Z,53.60
2023-03-13T10:16:26.873Z,53.70
2023-03-13T10:18:58.315Z,53.20
2023-03-13T10:21:33.980Z,52.90
2023-03-13T10:24:07.639Z,52.30
2023-03-13T10:26:55.942Z,50.10
2023-03-13T10:29:27.240Z,50.60
2023-03-13T10:32:00.757Z,49.20
2023-03-13T10:34:31.631Z,52.50
2023-03-13T10:37:02.810Z,49.50
2023-03-13T10:39:32.239Z,51.80
2023-03-13T10:42:11.585Z,50.50
2023-03-13T10:44:40.739Z,51.20
2023-03-13T10:47:16.160Z,51.00
2023-03-13T10:53:01.711Z,50.30
2023-03-13T10:58:38.947Z,45.20
2023-03-13T11:01:37.658Z,44.80
2023-03-13T11:04:22.833Z,46.40
2023-03-13T11:06:54.102Z,45.50
2023-03-13T11:09:41.720Z,44.10
2023-03-13T11:12:18.707Z,44.30
2023-03-13T11:14:48.275Z,42.30
2023-03-13T11:20:26.827Z,44.10
2023-03-13T11:23:03.621Z,45.30
2023-03-13T11:25:40.819Z,45.90
2023-03-13T11:28:21.684Z,45.20
2023-03-13T11:31:10.766Z,42.00
2023-03-13T11:33:53.681Z,41.30
2023-03-13T11:36:33.443Z,42.90
2023-03-13T11:39:18.797Z,40.70
2023-03-13T11:42:01.427Z,40.10
2023-03-13T11:44:39.349Z,39.00
2023-03-13T11:47:31.897Z,40.90
2023-03-13T11:50:31.196Z,43.00
2023-03-13T11:53:16.767Z,41.60
2023-03-13T11:56:00.290Z,41.20
2023-03-13T11:58:49.205Z,41.10
2023-03-13T12:04:14.702Z,42.10
2023-03-13T12:07:05.369Z,40.70
2023-03-13T12:09:43.374Z,44.00
2023-03-13T12:12:20.588Z,43.60
2023-03-13T12:14:55.123Z,44.40
2023-03-13T12:20:26.197Z,43.30
2023-03-13T12:23:04.147Z,40.00
2023-03-13T12:25:39.709Z,38.60
2023-03-13T12:31:30.035Z,41.50
2023-03-13T12:34:05.404Z,39.30
2023-03-13T12:36:41.865Z,41.20
2023-03-13T12:39:27.095Z,40.60
2023-03-13T12:42:28.976Z,39.80
2023-03-13T12:44:58.920Z,36.90
2023-03-13T12:47:34.107Z,36.50
2023-03-13T12:50:34.456Z,35.40
2023-03-13T12:53:34.974Z,36.00
2023-03-13T12:56:28.223Z,36.90
2023-03-13T13:01:53.886Z,35.60
2023-03-13T13:04:25.812Z,35.50
2023-03-13T13:07:02.589Z,36.10
2023-03-13T13:09:39.540Z,36.80
2023-03-13T13:12:21.550Z,35.70
2023-03-13T13:15:13.452Z,35.00
2023-03-13T13:18:21.192Z,33.30
2023-03-13T13:21:11.268Z,35.10
2023-03-13T13:23:43.996Z,34.50
2023-03-13T13:26:49.636Z,35.80
2023-03-13T13:29:58.239Z,35.00
2023-03-13T13:32:46.637Z,34.50
2023-03-13T13:35:25.450Z,36.70
2023-03-13T13:38:37.246Z,35.20
2023-03-13T13:41:45.316Z,35.80
2023-03-13T13:44:24.546Z,38.30
2023-03-13T13:47:12.876Z,38.70
2023-03-13T13:49:57.215Z,37.50
2023-03-13T13:52:40.601Z,36.40
2023-03-13T13:55:46.353Z,37.00
2023-03-13T13:58:21.886Z,38.40
2023-03-13T14:00:55.868Z,38.50
2023-03-13T14:06:39.272Z,38.30
2023-03-13T14:09:37.451Z,36.30
2023-03-13T14:12:30.664Z,34.70
2023-03-13T14:15:13.671Z,35.20
2023-03-13T14:17:44.915Z,34.70
2023-03-13T14:20:35.497Z,34.30
2023-03-13T14:23:08.169Z,35.80
2023-03-13T14:25:46.532Z,35.80
2023-03-13T14:28:33.899Z,35.30
2023-03-13T14:33:50.006Z,37.80
2023-03-13T14:36:19.060Z,36.70
2023-03-13T14:39:26.438Z,36.40
2023-03-13T14:41:56.456Z,36.70
2023-03-13T14:45:01.654Z,34.70
2023-03-13T14:47:31.970Z,34.90
2023-03-13T14:50:20.976Z,35.40
2023-03-13T14:55:41.427Z,38.00
2023-03-13T14:58:30.273Z,39.50
2023-03-13T15:01:25.673Z,38.30
2023-03-13T15:04:13.197Z,40.30
2023-03-13T15:07:37.870Z,40.40
2023-03-13T15:10:27.513Z,38.80
2023-03-13T15:12:58.055Z,36.50
2023-03-13T15:15:27.519Z,35.40
2023-03-13T15:17:56.601Z,36.50
2023-03-13T15:20:25.701Z,38.40
2023-03-13T15:22:54.802Z,37.80
2023-03-13T15:25:25.194Z,38.70
2023-03-13T15:27:54.297Z,40.30
2023-03-13T15:30:24.948Z,40.90
2023-03-13T15:33:14.942Z,41.30
2023-03-13T15:36:21.016Z,41.90
2023-03-13T15:38:51.905Z,42.10
2023-03-13T15:41:21.025Z,43.00
2023-03-13T15:44:08.760Z,42.90
2023-03-13T15:46:39.244Z,43.40
2023-03-13T15:52:04.071Z,43.00
2023-03-13T15:54:52.345Z,42.80
2023-03-13T15:57:47.225Z,43.80
2023-03-13T16:06:35.496Z,44.60
2023-03-13T16:09:23.988Z,46.00
2023-03-13T16:12:30.225Z,42.60
2023-03-13T16:14:59.250Z,40.10
2023-03-13T16:22:48.615Z,41.30
2023-03-13T16:25:17.783Z,41.00
2023-03-13T16:28:07.997Z,41.50
2023-03-13T16:33:25.887Z,42.70
2023-03-13T16:36:22.292Z,43.00
2023-03-13T16:38:52.096Z,43.40
2023-03-13T16:41:41.447Z,43.70
2023-03-13T16:44:29.098Z,44.50
2023-03-13T16:47:34.141Z,45.10
2023-03-13T16:50:35.854Z,45.00
2023-03-13T16:54:01.881Z,46.30
2023-03-13T16:56:51.457Z,47.00
2023-03-13T16:59:21.715Z,46.70
2023-03-13T17:01:50.942Z,47.10
2023-03-13T17:04:20.243Z,47.90
2023-03-13T17:06:49.553Z,48.30
2023-03-13T17:09:37.198Z,49.00
2023-03-13T17:12:06.757Z,49.70
2023-03-13T17:14:35.754Z,50.20
2023-03-13T17:17:23.440Z,50.80
2023-03-13T17:19:52.518Z,51.50
2023-03-13T17:22:24.543Z,52.50
2023-03-13T17:24:55.041Z,53.20
2023-03-13T17:27:25.122Z,53.70
2023-03-13T17:36:25.139Z,56.10
2023-03-13T17:39:31.024Z,56.80
2023-03-13T17:42:20.311Z,57.80
2023-03-13T17:45:09.068Z,58.20
2023-03-13T17:47:38.243Z,59.20
2023-03-13T17:53:03.480Z,62.20
2023-03-13T17:55:32.527Z,64.00
2023-03-13T17:58:02.957Z,65.30
2023-03-13T18:00:34.058Z,66.10
2023-03-13T18:03:03.120Z,67.60
2023-03-13T18:05:32.180Z,68.60
2023-03-13T18:08:01.427Z,69.10
2023-03-13T18:10:31.779Z,69.70
2023-03-13T18:13:02.394Z,70.70
2023-03-13T18:15:31.381Z,71.20
2023-03-13T18:18:00.363Z,72.10
2023-03-13T18:20:32.703Z,73.90
2023-03-13T18:23:20.221Z,75.00
2023-03-13T18:25:49.178Z,77.30
2023-03-13T18:28:19.677Z,77.40
2023-03-13T18:30:48.892Z,77.80
2023-03-13T18:33:18.044Z,79.50
2023-03-13T18:35:47.011Z,80.70
2023-03-13T18:38:16.027Z,80.70
2023-03-13T18:40:45.101Z,81.20
2023-03-13T18:43:33.530Z,81.00
2023-03-13T18:46:04.240Z,80.90
2023-03-13T18:48:34.710Z,81.70
2023-03-13T18:51:04.915Z,82.30
2023-03-13T18:53:52.463Z,83.10
2023-03-13T18:56:24.060Z,84.30
2023-03-13T18:58:56.329Z,84.90
2023-03-13T19:01:29.920Z,85.00
2023-03-13T19:04:00.791Z,84.30
2023-03-13T19:06:31.860Z,84.10
2023-03-13T19:09:42.180Z,83.60
2023-03-13T19:12:27.783Z,84.10
2023-03-13T19:14:57.217Z,85.00
2023-03-13T19:17:32.223Z,85.40
2023-03-13T19:20:01.259Z,85.00
2023-03-13T19:22:30.277Z,83.90
2023-03-13T19:25:17.716Z,83.10
2023-03-13T19:28:07.138Z,83.70
2023-03-13T19:30:36.146Z,83.80
2023-03-13T19:33:06.588Z,84.20
2023-03-13T19:35:35.564Z,85.00
2023-03-13T19:38:04.621Z,85.30
2023-03-13T19:40:33.660Z,85.80
2023-03-13T19:43:21.280Z,85.80
2023-03-13T19:46:28.712Z,86.80
2023-03-13T19:49:00.507Z,87.20
2023-03-13T19:51:31.271Z,87.40
2023-03-13T19:54:18.771Z,88.30
2023-03-13T19:56:49.662Z,87.50
2023-03-13T19:59:20.579Z,86.70
2023-03-13T20:01:49.894Z,87.50
2023-03-13T20:04:20.934Z,88.20
2023-03-13T20:06:49.993Z,88.70
2023-03-13T20:09:20.802Z,89.20
2023-03-13T20:12:07.209Z,90.80
2023-03-13T20:14:36.269Z,91.20
2023-03-13T20:17:05.341Z,91.40
2023-03-13T20:22:22.640Z,91.00
2023-03-13T20:24:56.142Z,91.60
2023-03-13T20:27:43.608Z,91.90
2023-03-13T20:30:13.784Z,91.40
2023-03-13T20:32:56.678Z,91.50
2023-03-13T20:35:50.549Z,91.80
2023-03-13T20:38:19.948Z,91.80
2023-03-13T20:40:54.797Z,92.10
2023-03-13T20:43:24.027Z,92.40
2023-03-13T20:46:33.856Z,92.70
2023-03-13T20:49:02.866Z,92.70
2023-03-13T20:51:34.057Z,93.10
2023-03-13T20:54:21.592Z,93.10
2023-03-13T20:56:50.736Z,92.50
2023-03-13T20:59:20.289Z,92.90
2023-03-13T21:01:49.375Z,92.70
2023-03-13T21:04:20.543Z,92.70
2023-03-13T21:06:51.061Z,92.90
2023-03-13T21:09:37.637Z,92.70
2023-03-13T21:14:55.219Z,92.60
2023-03-13T21:17:42.681Z,92.80
2023-03-13T21:20:12.758Z,93.00
2023-03-13T21:22:44.595Z,92.70
2023-03-13T21:28:00.918Z,93.70
2023-03-13T21:30:30.007Z,94.40
2023-03-13T21:32:59.122Z,93.70
2023-03-13T21:35:47.801Z,93.90
2023-03-13T21:38:18.762Z,94.20
2023-03-13T21:40:47.818Z,94.80
2023-03-13T21:43:16.878Z,95.40
2023-03-13T21:48:32.166Z,96.40
2023-03-13T21:51:01.351Z,96.80
2023-03-13T21:53:49.285Z,95.90
2023-03-13T21:56:37.001Z,94.80
2023-03-13T21:59:06.095Z,94.20
2023-03-13T22:01:35.047Z,93.70
2023-03-13T22:04:04.178Z,93.80
2023-03-13T22:06:33.243Z,94.30
2023-03-13T22:09:04.100Z,94.30
2023-03-13T22:11:33.157Z,94.10
2023-03-13T22:14:21.995Z,94.20
2023-03-13T22:16:51.278Z,94.50
2023-03-13T22:19:20.258Z,95.00
2023-03-13T22:22:25.152Z,94.90
2023-03-13T22:24:55.648Z,94.70
2023-03-13T22:27:25.789Z,94.90
2023-03-13T22:29:54.860Z,95.80
2023-03-13T22:32:24.672Z,94.80
2023-03-13T22:34:53.755Z,93.90
2023-03-13T22:37:26.822Z,94.40
2023-03-13T22:39:57.473Z,93.90
2023-03-13T22:42:27.168Z,94.00
2023-03-13T22:44:56.179Z,94.50
2023-03-13T22:47:26.259Z,94.70
2023-03-13T22:50:12.731Z,94.90
2023-03-13T22:52:42.095Z,94.60
2023-03-13T22:55:47.987Z,94.70
2023-03-13T23:03:54.370Z,95.10
2023-03-13T23:06:42.930Z,96.00
2023-03-13T23:09:30.603Z,95.90
2023-03-13T23:11:59.669Z,96.00
2023-03-13T23:14:30.562Z,95.90
2023-03-13T23:16:59.973Z,95.80
2023-03-13T23:19:30.041Z,96.10
2023-03-13T23:22:16.220Z,95.60
2023-03-13T23:24:45.302Z,95.90
2023-03-13T23:27:14.387Z,95.80
2023-03-13T23:29:45.069Z,95.60
2023-03-13T23:32:14.119Z,96.30
2023-03-13T23:34:43.074Z,96.50
2023-03-13T23:37:12.259Z,95.70
2023-03-13T23:39:41.212Z,95.50
2023-03-13T23:42:29.316Z,95.50
2023-03-13T23:45:00.692Z,96.20
2023-03-13T23:50:17.552Z,95.30
2023-03-13T23:52:46.701Z,95.50
2023-03-13T23:55:16.008Z,96.30
2023-03-13T23:57:45.059Z,96.00
